createdAt,value
2023-01-11T00:00:51.728Z,3.40
2023-01-11T00:01:51.876Z,3.30
2023-01-11T00:02:51.726Z,3.40
2023-01-11T00:03:51.729Z,3.40
2023-01-11T00:04:51.957Z,3.30
2023-01-11T00:05:51.740Z,3.30
2023-01-11T00:06:51.802Z,4.20
2023-01-11T00:07:51.789Z,3.30
2023-01-11T00:08:51.754Z,3.40
2023-01-11T00:09:51.760Z,4.30
2023-01-11T00:10:51.769Z,5.10
2023-01-11T00:11:51.764Z,5.20
2023-01-11T00:12:51.771Z,5.10
2023-01-11T00:13:51.793Z,7.50
2023-01-11T00:14:51.783Z,11.20
2023-01-11T00:15:51.835Z,14.20
2023-01-11T00:16:51.799Z,11.00
2023-01-11T00:17:51.793Z,9.30
2023-01-11T00:18:51.822Z,6.50
2023-01-11T00:19:51.827Z,6.70
2023-01-11T00:20:51.816Z,6.70
2023-01-11T00:21:51.817Z,6.50
2023-01-11T00:22:51.850Z,4.80
2023-01-11T00:23:51.824Z,4.60
2023-01-11T00:24:51.833Z,4.00
2023-01-11T00:25:51.833Z,4.50
2023-01-11T00:26:51.947Z,3.70
2023-01-11T00:27:51.850Z,3.50
2023-01-11T00:28:51.854Z,3.60
2023-01-11T00:29:51.873Z,4.10
2023-01-11T00:30:51.871Z,3.70
2023-01-11T00:31:51.872Z,3.30
2023-01-11T00:32:51.869Z,3.40
2023-01-11T00:33:51.872Z,3.30
2023-01-11T00:34:51.882Z,3.50
2023-01-11T00:35:51.877Z,3.40
2023-01-11T00:36:51.889Z,3.40
2023-01-11T00:37:51.889Z,3.40
2023-01-11T00:38:51.950Z,3.30
2023-01-11T00:39:51.905Z,3.40
2023-01-11T00:40:51.919Z,3.30
2023-01-11T00:41:51.908Z,3.40
2023-01-11T00:42:51.924Z,3.30
2023-01-11T00:43:51.921Z,3.30
2023-01-11T00:44:51.925Z,3.30
2023-01-11T00:45:52.099Z,3.30
2023-01-11T00:46:51.938Z,3.30
2023-01-11T00:47:51.951Z,3.30
2023-01-11T00:48:51.950Z,3.30
2023-01-11T00:49:51.950Z,3.30
2023-01-11T00:50:51.964Z,3.30
2023-01-11T00:51:51.957Z,3.30
2023-01-11T00:52:51.973Z,3.40
2023-01-11T00:53:51.966Z,3.40
2023-01-11T00:54:51.979Z,3.40
2023-01-11T00:55:51.984Z,3.40
2023-01-11T00:56:51.983Z,3.30
2023-01-11T00:57:51.996Z,3.30
2023-01-11T00:58:51.994Z,3.40
2023-01-11T00:59:51.998Z,3.30
2023-01-11T01:00:52.105Z,3.30
2023-01-11T01:01:52.029Z,3.80
2023-01-11T01:02:52.113Z,3.30
2023-01-11T01:03:52.012Z,3.30
2023-01-11T01:04:52.024Z,3.30
2023-01-11T01:05:52.023Z,3.30
2023-01-11T01:06:52.046Z,3.60
2023-01-11T01:07:52.051Z,3.40
2023-01-11T01:08:52.050Z,3.40
2023-01-11T01:09:52.145Z,3.30
2023-01-11T01:10:52.054Z,3.30
2023-01-11T01:11:52.051Z,3.30
2023-01-11T01:12:52.059Z,3.40
2023-01-11T01:13:52.070Z,3.30
2023-01-11T01:14:52.074Z,3.40
2023-01-11T01:15:52.142Z,3.40
2023-01-11T01:16:52.092Z,3.30
2023-01-11T01:17:52.103Z,3.30
2023-01-11T01:18:52.099Z,3.40
2023-01-11T01:19:52.090Z,3.40
2023-01-11T01:20:52.096Z,3.20
2023-01-11T01:21:52.100Z,3.30
2023-01-11T01:22:52.112Z,3.30
2023-01-11T01:23:52.107Z,3.30
2023-01-11T01:24:52.142Z,3.30
2023-01-11T01:25:52.158Z,3.20
2023-01-11T01:26:52.135Z,3.30
2023-01-11T01:27:52.126Z,3.30
2023-01-11T01:28:52.151Z,3.20
2023-01-11T01:29:52.134Z,4.00
2023-01-11T01:30:52.250Z,3.40
2023-01-11T01:31:52.145Z,3.30
2023-01-11T01:32:52.159Z,3.30
2023-01-11T01:33:52.173Z,3.40
2023-01-11T01:34:52.162Z,3.30
2023-01-11T01:35:52.165Z,3.20
2023-01-11T01:36:52.178Z,3.30
2023-01-11T01:37:52.170Z,3.30
2023-01-11T01:38:52.182Z,3.20
2023-01-11T01:39:52.181Z,3.30
2023-01-11T01:40:52.290Z,3.20
2023-01-11T01:41:52.189Z,3.20
2023-01-11T01:42:52.196Z,3.20
2023-01-11T01:43:52.204Z,3.20
2023-01-11T01:44:52.204Z,3.20
2023-01-11T01:45:52.212Z,3.20
2023-01-11T01:46:52.216Z,3.20
2023-01-11T01:47:52.220Z,3.20
2023-01-11T01:48:52.223Z,3.20
2023-01-11T01:49:52.248Z,3.30
2023-01-11T01:50:52.237Z,3.30
2023-01-11T01:51:52.246Z,3.20
2023-01-11T01:52:52.244Z,3.30
2023-01-11T01:53:52.254Z,3.20
2023-01-11T01:54:52.255Z,3.20
2023-01-11T01:55:52.263Z,3.30
2023-01-11T01:56:52.266Z,3.30
2023-01-11T01:57:52.267Z,3.20
2023-01-11T01:58:52.267Z,3.30
2023-01-11T01:59:52.280Z,3.20
2023-01-11T02:00:52.287Z,3.20
2023-01-11T02:01:52.408Z,3.20
2023-01-11T02:02:52.386Z,3.20
2023-01-11T02:03:52.316Z,3.20
2023-01-11T02:04:52.297Z,3.20
2023-01-11T02:05:52.325Z,3.20
2023-01-11T02:06:52.391Z,3.20
2023-01-11T02:07:52.310Z,3.20
2023-01-11T02:08:52.315Z,3.70
2023-01-11T02:09:52.329Z,3.30
2023-01-11T02:10:52.333Z,3.20
2023-01-11T02:11:52.358Z,3.20
2023-01-11T02:12:52.331Z,3.30
2023-01-11T02:13:52.343Z,3.30
2023-01-11T02:14:52.343Z,3.20
2023-01-11T02:15:52.377Z,3.20
2023-01-11T02:16:52.350Z,3.20
2023-01-11T02:17:52.359Z,3.20
2023-01-11T02:18:52.367Z,3.20
2023-01-11T02:19:52.369Z,3.20
2023-01-11T02:20:52.370Z,3.30
2023-01-11T02:21:52.400Z,3.20
2023-01-11T02:22:52.377Z,3.20
2023-01-11T02:23:52.415Z,3.30
2023-01-11T02:24:52.388Z,3.30
2023-01-11T02:25:52.399Z,3.20
2023-01-11T02:26:52.403Z,3.30
2023-01-11T02:27:52.405Z,3.30
2023-01-11T02:28:52.411Z,3.30
2023-01-11T02:29:52.414Z,3.20
2023-01-11T02:30:52.441Z,3.30
2023-01-11T02:31:52.440Z,3.30
2023-01-11T02:32:52.437Z,3.30
2023-01-11T02:33:52.437Z,3.30
2023-01-11T02:34:52.440Z,3.70
2023-01-11T02:35:52.446Z,3.40
2023-01-11T02:36:52.547Z,3.30
2023-01-11T02:37:52.474Z,3.30
2023-01-11T02:38:52.455Z,3.50
2023-01-11T02:39:52.463Z,3.30
2023-01-11T02:40:52.465Z,3.60
2023-01-11T02:41:52.474Z,3.60
2023-01-11T02:42:52.474Z,3.70
2023-01-11T02:43:52.485Z,3.90
2023-01-11T02:44:52.488Z,3.40
2023-01-11T02:45:52.508Z,3.20
2023-01-11T02:46:52.529Z,3.40
2023-01-11T02:47:52.499Z,3.30
2023-01-11T02:48:52.506Z,3.50
2023-01-11T02:49:52.514Z,3.30
2023-01-11T02:50:52.519Z,3.20
2023-01-11T02:51:52.522Z,3.20
2023-01-11T02:52:52.530Z,3.20
2023-01-11T02:53:52.557Z,3.20
2023-01-11T02:54:52.545Z,3.30
2023-01-11T02:55:52.538Z,3.20
2023-01-11T02:56:52.594Z,3.30
2023-01-11T02:57:52.552Z,3.20
2023-01-11T02:58:52.553Z,3.30
2023-01-11T02:59:52.559Z,3.20
2023-01-11T03:00:52.565Z,3.20
2023-01-11T03:01:52.685Z,3.20
2023-01-11T03:02:52.623Z,3.20
2023-01-11T03:03:52.601Z,3.20
2023-01-11T03:04:52.588Z,3.20
2023-01-11T03:05:52.594Z,3.20
2023-01-11T03:06:52.744Z,3.20
2023-01-11T03:07:52.600Z,3.20
2023-01-11T03:08:52.603Z,3.20
2023-01-11T03:09:52.642Z,3.30
2023-01-11T03:10:52.617Z,3.20
2023-01-11T03:11:52.625Z,3.20
2023-01-11T03:12:52.673Z,3.20
2023-01-11T03:13:52.630Z,3.20
2023-01-11T03:14:52.638Z,3.20
2023-01-11T03:15:52.691Z,3.20
2023-01-11T03:16:52.646Z,3.20
2023-01-11T03:17:52.650Z,3.20
2023-01-11T03:18:52.651Z,3.20
2023-01-11T03:19:52.659Z,3.20
2023-01-11T03:20:52.663Z,3.30
2023-01-11T03:21:52.671Z,3.20
2023-01-11T03:22:52.673Z,3.20
2023-01-11T03:23:52.681Z,3.20
2023-01-11T03:24:52.700Z,3.20
2023-01-11T03:25:52.717Z,3.20
2023-01-11T03:26:52.694Z,3.20
2023-01-11T03:27:52.710Z,3.20
2023-01-11T03:28:52.701Z,3.20
2023-01-11T03:29:52.712Z,3.20
2023-01-11T03:30:52.711Z,3.20
2023-01-11T03:31:52.729Z,3.40
2023-01-11T03:32:52.722Z,4.20
2023-01-11T03:33:52.734Z,4.80
2023-01-11T03:34:52.732Z,3.20
2023-01-11T03:35:52.741Z,3.20
2023-01-11T03:36:52.742Z,3.30
2023-01-11T03:37:52.762Z,3.20
2023-01-11T03:38:52.780Z,3.20
2023-01-11T03:39:52.784Z,3.20
2023-01-11T03:40:52.765Z,3.20
2023-01-11T03:41:52.813Z,3.30
2023-01-11T03:42:52.774Z,3.20
2023-01-11T03:43:52.782Z,3.20
2023-01-11T03:44:52.783Z,3.20
2023-01-11T03:45:52.792Z,3.30
2023-01-11T03:46:52.822Z,3.30
2023-01-11T03:47:52.812Z,3.20
2023-01-11T03:48:52.810Z,3.20
2023-01-11T03:49:52.810Z,3.30
2023-01-11T03:50:52.815Z,3.30
2023-01-11T03:51:52.823Z,3.20
2023-01-11T03:52:52.824Z,3.20
2023-01-11T03:53:52.840Z,3.30
2023-01-11T03:54:52.835Z,3.20
2023-01-11T03:55:52.854Z,3.20
2023-01-11T03:56:52.843Z,3.30
2023-01-11T03:57:52.874Z,3.20
2023-01-11T03:58:52.862Z,3.40
2023-01-11T03:59:52.860Z,3.30
2023-01-11T04:00:52.908Z,3.20
2023-01-11T04:01:52.883Z,3.20
2023-01-11T04:02:52.875Z,3.20
2023-01-11T04:03:52.921Z,3.20
2023-01-11T04:04:52.885Z,3.20
2023-01-11T04:05:52.895Z,3.20
2023-01-11T04:06:52.948Z,3.20
2023-01-11T04:07:52.905Z,3.20
2023-01-11T04:08:52.910Z,3.30
2023-01-11T04:09:52.916Z,3.30
2023-01-11T04:10:52.939Z,3.30
2023-01-11T04:11:52.933Z,3.50
2023-01-11T04:12:52.925Z,3.40
2023-01-11T04:13:52.955Z,3.30
2023-01-11T04:14:52.934Z,3.30
2023-01-11T04:15:52.944Z,3.60
2023-01-11T04:16:52.951Z,3.30
2023-01-11T04:17:52.952Z,3.30
2023-01-11T04:18:52.954Z,3.20
2023-01-11T04:19:52.963Z,3.30
2023-01-11T04:20:52.961Z,3.30
2023-01-11T04:21:52.972Z,3.20
2023-01-11T04:22:53.083Z,3.30
2023-01-11T04:23:52.981Z,3.20
2023-01-11T04:24:52.984Z,3.30
2023-01-11T04:25:53.001Z,3.30
2023-01-11T04:26:52.992Z,3.30
2023-01-11T04:27:53.001Z,3.30
2023-01-11T04:28:54.358Z,3.30
2023-01-11T04:29:53.031Z,3.70
2023-01-11T04:30:53.023Z,3.30
2023-01-11T04:31:53.098Z,3.30
2023-01-11T04:32:53.032Z,3.30
2023-01-11T04:33:53.033Z,3.40
2023-01-11T04:34:53.033Z,3.40
2023-01-11T04:35:53.043Z,3.30
2023-01-11T04:36:53.044Z,3.20
2023-01-11T04:37:53.057Z,3.30
2023-01-11T04:38:53.057Z,3.60
2023-01-11T04:39:53.060Z,3.30
2023-01-11T04:40:53.066Z,3.30
2023-01-11T04:41:53.069Z,3.20
2023-01-11T04:42:53.076Z,3.90
2023-01-11T04:43:53.082Z,3.20
2023-01-11T04:44:53.116Z,3.30
2023-01-11T04:45:53.159Z,3.30
2023-01-11T04:46:53.095Z,3.30
2023-01-11T04:47:53.099Z,3.30
2023-01-11T04:48:53.103Z,3.20
2023-01-11T04:49:53.110Z,3.20
2023-01-11T04:50:53.125Z,3.70
2023-01-11T04:51:53.122Z,3.30
2023-01-11T04:52:53.127Z,3.30
2023-01-11T04:53:53.130Z,3.20
2023-01-11T04:54:53.136Z,3.30
2023-01-11T04:55:53.142Z,3.30
2023-01-11T04:56:53.141Z,3.30
2023-01-11T04:57:53.163Z,3.20
2023-01-11T04:58:53.164Z,3.20
2023-01-11T04:59:53.157Z,3.30
2023-01-11T05:00:53.248Z,3.30
2023-01-11T05:01:53.189Z,3.30
2023-01-11T05:02:53.173Z,3.20
2023-01-11T05:03:53.218Z,3.30
2023-01-11T05:04:53.184Z,3.60
2023-01-11T05:05:53.192Z,3.40
2023-01-11T05:06:53.230Z,3.30
2023-01-11T05:07:53.209Z,3.30
2023-01-11T05:08:53.202Z,3.30
2023-01-11T05:09:53.213Z,3.30
2023-01-11T05:10:53.213Z,3.40
2023-01-11T05:11:53.234Z,3.30
2023-01-11T05:12:53.219Z,3.30
2023-01-11T05:13:53.227Z,3.30
2023-01-11T05:14:53.229Z,3.40
2023-01-11T05:15:53.240Z,3.20
2023-01-11T05:16:53.245Z,3.20
2023-01-11T05:17:53.290Z,3.30
2023-01-11T05:18:53.255Z,3.20
2023-01-11T05:19:53.286Z,3.40
2023-01-11T05:20:53.259Z,3.30
2023-01-11T05:21:53.273Z,3.30
2023-01-11T05:22:53.271Z,3.80
2023-01-11T05:23:53.277Z,3.30
2023-01-11T05:24:53.277Z,3.30
2023-01-11T05:25:53.284Z,3.20
2023-01-11T05:26:53.303Z,3.30
2023-01-11T05:27:53.306Z,3.40
2023-01-11T05:28:53.298Z,3.30
2023-01-11T05:29:53.304Z,3.20
2023-01-11T05:30:53.308Z,3.20
2023-01-11T05:31:53.362Z,3.30
2023-01-11T05:32:53.325Z,3.20
2023-01-11T05:33:53.371Z,3.20
2023-01-11T05:34:53.328Z,3.30
2023-01-11T05:35:54.495Z,3.20
2023-01-11T05:36:53.336Z,3.30
2023-01-11T05:37:53.350Z,3.30
2023-01-11T05:38:53.345Z,3.50
2023-01-11T05:39:53.354Z,3.20
2023-01-11T05:40:53.356Z,3.50
2023-01-11T05:41:53.370Z,3.90
2023-01-11T05:42:53.370Z,3.60
2023-01-11T05:43:53.374Z,3.40
2023-01-11T05:44:53.384Z,3.30
2023-01-11T05:45:53.447Z,3.30
2023-01-11T05:46:53.392Z,3.40
2023-01-11T05:47:53.395Z,3.20
2023-01-11T05:48:53.394Z,3.20
2023-01-11T05:49:53.426Z,3.20
2023-01-11T05:50:53.416Z,3.30
2023-01-11T05:51:53.410Z,3.30
2023-01-11T05:52:53.423Z,3.30
2023-01-11T05:53:53.531Z,3.20
2023-01-11T05:54:53.424Z,3.30
2023-01-11T05:55:53.435Z,3.70
2023-01-11T05:56:53.434Z,3.20
2023-01-11T05:57:53.449Z,3.20
2023-01-11T05:58:53.441Z,3.30
2023-01-11T05:59:53.460Z,3.30
2023-01-11T06:00:53.486Z,3.30
2023-01-11T06:01:53.503Z,3.50
2023-01-11T06:02:53.616Z,3.30
2023-01-11T06:03:53.479Z,3.30
2023-01-11T06:04:55.407Z,3.30
2023-01-11T06:05:53.503Z,3.30
2023-01-11T06:06:53.673Z,3.20
2023-01-11T06:07:53.485Z,3.30
2023-01-11T06:08:53.508Z,3.20
2023-01-11T06:09:53.510Z,3.20
2023-01-11T06:10:53.503Z,3.30
2023-01-11T06:11:53.511Z,3.30
2023-01-11T06:12:53.516Z,3.30
2023-01-11T06:13:53.545Z,3.20
2023-01-11T06:14:53.526Z,3.30
2023-01-11T06:15:53.536Z,3.30
2023-01-11T06:16:53.633Z,3.50
2023-01-11T06:17:53.551Z,3.20
2023-01-11T06:18:53.540Z,3.20
2023-01-11T06:19:53.544Z,3.30
2023-01-11T06:20:53.556Z,3.20
2023-01-11T06:21:53.576Z,3.40
2023-01-11T06:22:53.569Z,3.20
2023-01-11T06:23:53.564Z,3.20
2023-01-11T06:24:53.574Z,3.30
2023-01-11T06:25:53.591Z,3.30
2023-01-11T06:26:53.599Z,3.20
2023-01-11T06:27:53.585Z,3.40
2023-01-11T06:28:53.597Z,3.30
2023-01-11T06:29:53.645Z,3.30
2023-01-11T06:30:53.649Z,3.20
2023-01-11T06:31:53.609Z,3.20
2023-01-11T06:32:53.613Z,3.20
2023-01-11T06:33:53.614Z,3.20
2023-01-11T06:34:53.623Z,3.30
2023-01-11T06:35:53.626Z,3.30
2023-01-11T06:36:53.637Z,3.20
2023-01-11T06:37:53.747Z,3.20
2023-01-11T06:38:53.647Z,3.30
2023-01-11T06:39:53.643Z,3.20
2023-01-11T06:40:53.657Z,3.30
2023-01-11T06:41:53.652Z,3.30
2023-01-11T06:42:53.666Z,3.30
2023-01-11T06:43:53.662Z,3.50
2023-01-11T06:44:53.671Z,3.60
2023-01-11T06:45:53.721Z,3.30
2023-01-11T06:46:53.685Z,3.30
2023-01-11T06:47:53.681Z,3.30
2023-01-11T06:48:53.702Z,3.20
2023-01-11T06:49:53.695Z,4.10
2023-01-11T06:50:53.707Z,4.60
2023-01-11T06:51:53.702Z,3.30
2023-01-11T06:52:53.713Z,3.40
2023-01-11T06:53:53.729Z,3.30
2023-01-11T06:54:53.720Z,3.30
2023-01-11T06:55:53.723Z,3.30
2023-01-11T06:56:53.729Z,3.30
2023-01-11T06:57:53.738Z,3.30
2023-01-11T06:58:53.749Z,3.30
2023-01-11T06:59:53.738Z,3.40
2023-01-11T07:00:53.829Z,3.40
2023-01-11T07:01:53.752Z,3.30
2023-01-11T07:02:53.781Z,3.40
2023-01-11T07:03:53.766Z,3.40
2023-01-11T07:04:53.835Z,3.30
2023-01-11T07:05:53.779Z,4.00
2023-01-11T07:06:53.800Z,3.20
2023-01-11T07:07:53.780Z,3.30
2023-01-11T07:08:53.895Z,3.30
2023-01-11T07:09:53.812Z,3.20
2023-01-11T07:10:53.808Z,3.20
2023-01-11T07:11:53.801Z,3.30
2023-01-11T07:12:53.816Z,3.60
2023-01-11T07:13:53.817Z,3.20
2023-01-11T07:14:53.835Z,3.20
2023-01-11T07:15:53.955Z,3.30
2023-01-11T07:16:53.826Z,3.30
2023-01-11T07:17:53.843Z,3.30
2023-01-11T07:18:53.834Z,3.50
2023-01-11T07:19:53.850Z,3.70
2023-01-11T07:20:53.852Z,3.70
2023-01-11T07:21:53.852Z,3.30
2023-01-11T07:22:53.859Z,3.40
2023-01-11T07:23:53.856Z,3.30
2023-01-11T07:24:53.865Z,3.50
2023-01-11T07:25:53.928Z,3.40
2023-01-11T07:26:53.897Z,3.40
2023-01-11T07:27:53.878Z,3.20
2023-01-11T07:28:53.900Z,3.30
2023-01-11T07:29:53.884Z,3.20
2023-01-11T07:30:58.795Z,3.30
2023-01-11T07:31:53.894Z,3.30
2023-01-11T07:32:53.907Z,3.30
2023-01-11T07:33:53.906Z,3.60
2023-01-11T07:34:53.915Z,3.20
2023-01-11T07:35:53.952Z,3.80
2023-01-11T07:36:53.930Z,3.80
2023-01-11T07:37:53.928Z,3.30
2023-01-11T07:38:53.936Z,3.30
2023-01-11T07:39:53.936Z,3.80
2023-01-11T07:40:53.968Z,3.30
2023-01-11T07:41:53.969Z,3.20
2023-01-11T07:42:53.956Z,3.40
2023-01-11T07:43:53.957Z,3.40
2023-01-11T07:44:53.967Z,3.30
2023-01-11T07:45:54.220Z,3.30
2023-01-11T07:46:54.220Z,3.30
2023-01-11T07:47:53.988Z,3.30
2023-01-11T07:48:53.993Z,3.70
2023-01-11T07:49:54.088Z,3.30
2023-01-11T07:50:54.147Z,3.60
2023-01-11T07:51:54.005Z,3.40
2023-01-11T07:52:54.011Z,3.30
2023-01-11T07:53:54.008Z,3.30
2023-01-11T07:54:54.019Z,3.30
2023-01-11T07:55:54.019Z,4.10
2023-01-11T07:56:54.032Z,3.50
2023-01-11T07:57:54.055Z,3.30
2023-01-11T07:58:54.039Z,3.50
2023-01-11T07:59:54.054Z,3.60
2023-01-11T08:00:54.052Z,3.60
2023-01-11T08:01:54.060Z,3.40
2023-01-11T08:02:54.170Z,3.40
2023-01-11T08:03:54.138Z,3.30
2023-01-11T08:04:54.072Z,3.30
2023-01-11T08:05:54.084Z,3.30
2023-01-11T08:06:54.092Z,3.30
2023-01-11T08:07:54.088Z,3.30
2023-01-11T08:08:54.092Z,3.30
2023-01-11T08:09:54.099Z,3.40
2023-01-11T08:10:54.103Z,3.30
2023-01-11T08:11:54.108Z,3.40
2023-01-11T08:12:54.116Z,3.40
2023-01-11T08:13:54.168Z,3.30
2023-01-11T08:14:54.133Z,3.40
2023-01-11T08:15:54.167Z,3.30
2023-01-11T08:16:54.136Z,3.30
2023-01-11T08:17:54.138Z,3.30
2023-01-11T08:18:54.154Z,3.30
2023-01-11T08:19:54.158Z,3.40
2023-01-11T08:20:54.168Z,3.40
2023-01-11T08:21:54.164Z,3.30
2023-01-11T08:22:54.191Z,3.30
2023-01-11T08:23:54.175Z,3.30
2023-01-11T08:24:54.183Z,3.30
2023-01-11T08:25:54.182Z,3.60
2023-01-11T08:26:54.268Z,3.30
2023-01-11T08:27:54.213Z,3.30
2023-01-11T08:28:54.206Z,3.30
2023-01-11T08:29:54.225Z,3.30
2023-01-11T08:30:54.311Z,3.30
2023-01-11T08:31:54.221Z,3.30
2023-01-11T08:32:54.228Z,3.30
2023-01-11T08:33:54.239Z,3.30
2023-01-11T08:34:54.252Z,3.30
2023-01-11T08:35:54.238Z,3.30
2023-01-11T08:36:54.269Z,3.30
2023-01-11T08:37:54.258Z,3.30
2023-01-11T08:38:54.269Z,3.30
2023-01-11T08:39:54.274Z,3.30
2023-01-11T08:40:54.276Z,3.30
2023-01-11T08:41:54.276Z,3.30
2023-01-11T08:42:54.295Z,3.40
2023-01-11T08:43:54.290Z,3.50
2023-01-11T08:44:54.302Z,3.30
2023-01-11T08:45:54.332Z,4.50
2023-01-11T08:46:54.314Z,3.90
2023-01-11T08:47:54.321Z,3.60
2023-01-11T08:48:54.328Z,3.40
2023-01-11T08:49:54.324Z,3.40
2023-01-11T08:50:54.333Z,3.40
2023-01-11T08:51:54.342Z,3.40
2023-01-11T08:52:54.352Z,3.50
2023-01-11T08:53:54.349Z,3.50
2023-01-11T08:54:54.369Z,3.40
2023-01-11T08:55:54.363Z,3.50
2023-01-11T08:56:54.376Z,3.40
2023-01-11T08:57:54.375Z,3.40
2023-01-11T08:58:54.383Z,3.60
2023-01-11T08:59:54.386Z,3.50
2023-01-11T09:00:54.409Z,3.60
2023-01-11T09:01:54.493Z,4.70
2023-01-11T09:02:54.450Z,4.50
2023-01-11T09:03:54.414Z,6.50
2023-01-11T09:04:54.425Z,4.00
2023-01-11T09:05:54.424Z,4.20
2023-01-11T09:06:54.478Z,4.00
2023-01-11T09:07:54.443Z,3.90
2023-01-11T09:08:54.464Z,3.70
2023-01-11T09:09:54.458Z,3.80
2023-01-11T09:10:54.465Z,4.00
2023-01-11T09:11:54.475Z,5.10
2023-01-11T09:12:54.481Z,8.20
2023-01-11T09:13:54.481Z,14.50
2023-01-11T09:14:54.537Z,7.30
2023-01-11T09:15:54.513Z,5.50
2023-01-11T09:16:54.520Z,8.20
2023-01-11T09:17:54.533Z,8.80
2023-01-11T09:18:54.514Z,5.60
2023-01-11T09:19:54.528Z,5.00
2023-01-11T09:20:54.532Z,5.40
2023-01-11T09:21:54.537Z,4.60
2023-01-11T09:22:54.548Z,4.20
2023-01-11T09:23:54.664Z,3.80
2023-01-11T09:24:54.558Z,3.50
2023-01-11T09:25:54.559Z,3.40
2023-01-11T09:26:54.627Z,3.60
2023-01-11T09:27:54.572Z,3.70
2023-01-11T09:28:54.609Z,3.50
2023-01-11T09:29:54.587Z,3.40
2023-01-11T09:30:54.631Z,3.60
2023-01-11T09:31:54.601Z,3.40
2023-01-11T09:32:54.620Z,3.40
2023-01-11T09:33:54.648Z,3.40
2023-01-11T09:34:54.628Z,3.50
2023-01-11T09:35:54.632Z,3.90
2023-01-11T09:36:54.639Z,3.70
2023-01-11T09:37:54.646Z,3.90
2023-01-11T09:38:54.660Z,3.70
2023-01-11T09:39:54.663Z,3.70
2023-01-11T09:40:54.671Z,3.70
2023-01-11T09:41:54.674Z,9.50
2023-01-11T09:42:54.685Z,4.00
2023-01-11T09:43:54.685Z,3.90
2023-01-11T09:44:54.707Z,4.40
2023-01-11T09:45:54.716Z,3.90
2023-01-11T09:46:54.765Z,3.70
2023-01-11T09:47:54.721Z,3.50
2023-01-11T09:48:54.727Z,5.10
2023-01-11T09:49:54.866Z,3.50
2023-01-11T09:50:54.821Z,3.40
2023-01-11T09:51:54.745Z,3.40
2023-01-11T09:52:54.757Z,3.70
2023-01-11T09:53:54.760Z,3.70
2023-01-11T09:54:54.771Z,3.40
2023-01-11T09:55:54.780Z,3.40
2023-01-11T09:56:54.812Z,3.40
2023-01-11T09:57:54.873Z,3.40
2023-01-11T09:58:54.797Z,4.30
2023-01-11T09:59:54.802Z,3.50
2023-01-11T10:00:54.888Z,3.40
2023-01-11T10:01:54.841Z,3.30
2023-01-11T10:02:54.835Z,3.80
2023-01-11T10:03:54.833Z,3.40
2023-01-11T10:04:54.866Z,3.40
2023-01-11T10:05:54.941Z,3.40
2023-01-11T10:06:54.856Z,3.40
2023-01-11T10:18:26.028Z,3.40
2023-01-11T10:18:29.554Z,3.40
2023-01-11T10:18:32.089Z,3.30
2023-01-11T10:18:40.560Z,3.30
2023-01-11T10:19:19.651Z,3.40
2023-01-11T10:19:54.976Z,3.30
2023-01-11T10:20:54.960Z,3.40
2023-01-11T10:21:54.983Z,3.50
2023-01-11T10:22:54.970Z,3.40
2023-01-11T10:23:54.994Z,3.50
2023-01-11T10:24:54.988Z,3.50
2023-01-11T10:25:55.011Z,3.90
2023-01-11T10:26:55.049Z,4.40
2023-01-11T10:27:55.023Z,3.80
2023-01-11T10:28:55.031Z,3.50
2023-01-11T10:29:55.044Z,3.60
2023-01-11T10:30:55.029Z,3.90
2023-01-11T10:31:55.050Z,3.40
2023-01-11T10:32:55.046Z,3.80
2023-01-11T10:33:55.056Z,3.40
2023-01-11T10:34:55.071Z,3.40
2023-01-11T10:35:55.070Z,3.30
2023-01-11T10:36:55.084Z,3.50
2023-01-11T10:37:55.105Z,3.40
2023-01-11T10:38:55.118Z,3.30
2023-01-11T10:39:55.107Z,4.10
2023-01-11T10:40:55.108Z,3.40
2023-01-11T10:41:55.113Z,3.40
2023-01-11T10:42:55.118Z,3.40
2023-01-11T10:43:55.171Z,3.30
2023-01-11T10:44:55.140Z,3.30
2023-01-11T10:45:55.238Z,3.70
2023-01-11T10:46:55.159Z,3.30
2023-01-11T10:47:55.164Z,3.40
2023-01-11T10:48:55.161Z,3.40
2023-01-11T10:49:55.178Z,3.40
2023-01-11T10:50:55.182Z,3.40
2023-01-11T10:51:55.191Z,3.50
2023-01-11T10:52:55.195Z,3.40
2023-01-11T10:53:55.244Z,3.40
2023-01-11T10:54:55.213Z,3.30
2023-01-11T10:55:55.232Z,3.40
2023-01-11T10:57:01.863Z,3.40
2023-01-11T10:58:00.761Z,3.30
2023-01-11T10:58:55.236Z,3.30
2023-01-11T10:59:55.249Z,3.30
2023-01-11T11:00:55.270Z,3.30
2023-01-11T11:01:55.421Z,3.40
2023-01-11T11:02:55.265Z,3.60
2023-01-11T11:03:55.285Z,3.40
2023-01-11T11:04:55.280Z,3.40
2023-01-11T11:05:55.317Z,3.30
2023-01-11T11:06:55.299Z,3.70
2023-01-11T11:07:55.304Z,3.40
2023-01-11T11:08:55.311Z,3.30
2023-01-11T11:09:55.424Z,3.50
2023-01-11T11:10:55.330Z,3.40
2023-01-11T11:11:55.332Z,3.30
2023-01-11T11:12:55.338Z,3.40
2023-01-11T11:13:55.350Z,3.50
2023-01-11T11:14:55.356Z,3.40
2023-01-11T11:15:55.513Z,3.40
2023-01-11T11:16:55.402Z,3.40
2023-01-11T11:17:55.379Z,3.70
2023-01-11T11:18:55.380Z,3.40
2023-01-11T11:19:55.391Z,3.40
2023-01-11T11:20:55.397Z,3.30
2023-01-11T11:21:55.407Z,3.40
2023-01-11T11:22:55.411Z,3.50
2023-01-11T11:23:55.426Z,3.50
2023-01-11T11:24:55.429Z,3.40
2023-01-11T11:25:55.459Z,3.40
2023-01-11T11:26:55.494Z,3.80
2023-01-11T11:27:55.450Z,3.30
2023-01-11T11:28:55.454Z,3.30
2023-01-11T11:29:55.466Z,3.40
2023-01-11T11:30:55.472Z,3.40
2023-01-11T11:31:55.530Z,3.30
2023-01-11T11:32:55.506Z,3.40
2023-01-11T11:33:55.493Z,3.40
2023-01-11T11:34:55.496Z,3.30
2023-01-11T11:35:55.510Z,3.30
2023-01-11T11:36:55.511Z,3.40
2023-01-11T11:37:55.530Z,3.40
2023-01-11T11:38:55.746Z,3.80
2023-01-11T11:39:55.544Z,3.40
2023-01-11T11:40:55.568Z,3.40
2023-01-11T11:41:55.580Z,3.40
2023-01-11T11:42:55.560Z,3.40
2023-01-11T11:43:55.568Z,3.50
2023-01-11T11:44:55.569Z,3.40
2023-01-11T11:45:55.673Z,3.40
2023-01-11T11:46:55.583Z,3.50
2023-01-11T11:47:55.594Z,3.50
2023-01-11T11:48:55.595Z,3.50
2023-01-11T11:49:55.613Z,4.10
2023-01-11T11:50:55.623Z,3.50
2023-01-11T11:51:55.635Z,3.50
2023-01-11T11:52:55.637Z,3.40
2023-01-11T11:53:55.643Z,4.70
2023-01-11T11:54:55.641Z,3.40
2023-01-11T11:55:55.649Z,3.50
2023-01-11T11:56:55.658Z,3.60
2023-01-11T11:57:55.717Z,3.50
2023-01-11T11:58:55.687Z,3.40
2023-01-11T11:59:55.681Z,3.60
2023-01-11T12:00:55.684Z,3.40
2023-01-11T12:01:55.745Z,3.50
2023-01-11T12:02:55.699Z,3.40
2023-01-11T12:03:55.741Z,3.30
2023-01-11T12:04:55.767Z,3.40
2023-01-11T12:05:55.743Z,4.10
2023-01-11T12:06:55.730Z,3.40
2023-01-11T12:07:55.966Z,3.50
2023-01-11T12:08:55.747Z,3.40
2023-01-11T12:09:55.758Z,3.40
2023-01-11T12:10:55.764Z,3.40
2023-01-11T12:11:55.772Z,3.50
2023-01-11T12:12:55.776Z,3.40
2023-01-11T12:13:55.823Z,3.60
2023-01-11T12:14:55.790Z,3.60
2023-01-11T12:15:55.804Z,3.40
2023-01-11T12:16:55.861Z,3.50
2023-01-11T12:17:55.818Z,3.40
2023-01-11T12:18:55.823Z,3.40
2023-01-11T12:19:55.830Z,3.50
2023-01-11T12:20:55.857Z,3.50
2023-01-11T12:21:55.848Z,3.60
2023-01-11T12:22:55.861Z,3.40
2023-01-11T12:23:55.869Z,3.40
2023-01-11T12:24:55.865Z,4.00
2023-01-11T12:25:55.880Z,4.40
2023-01-11T12:26:55.899Z,3.40
2023-01-11T12:27:55.896Z,3.60
2023-01-11T12:28:55.899Z,3.50
2023-01-11T12:29:55.946Z,3.40
2023-01-11T12:30:55.964Z,3.40
2023-01-11T12:31:55.937Z,3.40
2023-01-11T12:32:55.931Z,3.40
2023-01-11T12:33:55.986Z,3.40
2023-01-11T12:34:55.947Z,3.40
2023-01-11T12:35:55.999Z,3.70
2023-01-11T12:36:55.966Z,3.30
2023-01-11T12:37:55.972Z,3.40
2023-01-11T12:38:55.986Z,4.60
2023-01-11T12:39:56.000Z,3.40
2023-01-11T12:40:55.993Z,3.40
2023-01-11T12:41:56.013Z,3.60
2023-01-11T12:42:56.023Z,3.40
2023-01-11T12:43:56.024Z,3.40
2023-01-11T12:44:56.025Z,3.30
2023-01-11T12:45:56.089Z,3.30
2023-01-11T12:46:56.041Z,3.30
2023-01-11T12:47:56.051Z,3.40
2023-01-11T12:48:56.057Z,3.40
2023-01-11T12:49:56.078Z,3.40
2023-01-11T12:50:56.073Z,3.30
2023-01-11T12:51:56.085Z,3.40
2023-01-11T12:52:56.086Z,3.30
2023-01-11T12:53:56.103Z,3.50
2023-01-11T12:54:56.106Z,3.40
2023-01-11T12:55:56.121Z,4.30
2023-01-11T12:56:56.119Z,3.50
2023-01-11T12:57:56.128Z,3.50
2023-01-11T12:58:56.143Z,3.90
2023-01-11T12:59:56.143Z,3.40
2023-01-11T13:00:56.212Z,3.40
2023-01-11T13:01:56.192Z,3.40
2023-01-11T13:02:56.268Z,3.40
2023-01-11T13:03:56.185Z,3.40
2023-01-11T13:04:56.179Z,3.80
2023-01-11T13:05:56.202Z,3.30
2023-01-11T13:06:56.192Z,3.30
2023-01-11T13:07:56.203Z,3.40
2023-01-11T13:08:56.251Z,3.30
2023-01-11T13:09:56.219Z,3.30
2023-01-11T13:10:56.229Z,3.40
2023-01-11T13:11:56.234Z,3.70
2023-01-11T13:12:56.239Z,3.60
2023-01-11T13:13:56.253Z,3.50
2023-01-11T13:14:56.251Z,3.50
2023-01-11T13:15:56.265Z,3.60
2023-01-11T13:16:56.320Z,3.50
2023-01-11T13:17:56.304Z,3.50
2023-01-11T13:18:56.280Z,3.50
2023-01-11T13:19:56.289Z,3.40
2023-01-11T13:21:01.732Z,3.40
2023-01-11T13:21:56.313Z,3.50
2023-01-11T13:22:56.319Z,3.40
2023-01-11T13:23:56.320Z,3.40
2023-01-11T13:24:56.324Z,3.40
2023-01-11T13:25:56.334Z,3.40